Time;durP1;ratioP1;P1;durP2;ratioP2;P2;SDS_P1;SDS_P2;PMS_P1;PMS_P2;Temp;Humidity;BMP_temperature;BMP_pressure;BME280_temperature;BME280_humidity;BME280_pressure;Samples;Min_cycle;Max_cycle;Signal;HPM_P1;HPM_P2
2024/02/01 00:02:26;;;;;;;3.80;3.50;;;5.50;99.90;;;;;;5107806;27;20222;-72
2024/02/01 00:04:54;;;;;;;3.60;3.40;;;5.50;99.90;;;;;;5106379;28;20289;-72
2024/02/01 00:07:20;;;;;;;4.17;3.80;;;5.50;99.90;;;;;;5105808;28;20233;-72
2024/02/01 00:09:48;;;;;;;3.83;3.53;;;5.50;99.90;;;;;;5087830;28;20636;-72
2024/02/01 00:12:15;;;;;;;4.90;4.20;;;5.50;99.90;;;;;;5087829;28;20999;-74
2024/02/01 00:14:42;;;;;;;4.10;3.70;;;5.50;99.90;;;;;;5100906;28;20643;-74
2024/02/01 00:17:09;;;;;;;4.03;3.73;;;5.50;99.90;;;;;;5087578;28;20211;-73
2024/02/01 00:19:35;;;;;;;4.07;3.73;;;5.50;99.90;;;;;;5087924;28;20209;-73
2024/02/01 00:22:04;;;;;;;4.03;3.73;;;5.50;99.90;;;;;;5087336;28;20265;-73
2024/02/01 00:24:31;;;;;;;9.43;3.63;;;5.50;99.90;;;;;;5087299;28;20314;-73
2024/02/01 00:26:58;;;;;;;4.23;3.93;;;5.50;99.90;;;;;;5098211;28;20297;-73
2024/02/01 00:29:25;;;;;;;4.50;3.93;;;5.50;99.90;;;;;;5103750;28;20278;-72
2024/02/01 00:31:52;;;;;;;4.17;3.87;;;5.50;99.90;;;;;;5088102;28;20210;-72
2024/02/01 00:34:19;;;;;;;4.23;3.93;;;5.50;99.90;;;;;;5087299;28;20645;-72
2024/02/01 00:36:45;;;;;;;4.10;3.80;;;5.50;99.90;;;;;;5087327;28;20326;-72
2024/02/01 00:39:14;;;;;;;3.67;3.37;;;5.50;99.90;;;;;;5087585;28;20290;-72
2024/02/01 00:41:40;;;;;;;3.93;3.63;;;5.50;99.90;;;;;;5087724;28;20202;-73
2024/02/01 00:44:07;;;;;;;3.90;3.60;;;5.50;99.90;;;;;;5087451;28;20289;-73
2024/02/01 00:46:34;;;;;;;3.87;3.57;;;5.50;99.90;;;;;;5086810;28;20234;-73
2024/02/01 00:49:01;;;;;;;4.03;3.73;;;5.50;99.90;;;;;;5087110;28;20669;-73
2024/02/01 00:51:28;;;;;;;4.17;3.87;;;5.50;99.90;;;;;;5086804;28;20201;-73
2024/02/01 00:53:55;;;;;;;3.80;3.50;;;5.50;99.90;;;;;;5087379;28;20217;-73
2024/02/01 00:56:23;;;;;;;4.00;3.47;;;5.50;99.90;;;;;;5107390;28;20297;-73
2024/02/01 00:58:50;;;;;;;4.17;3.80;;;5.50;99.90;;;;;;5107626;28;20206;-73
2024/02/01 01:01:17;;;;;;;3.77;3.47;;;5.60;99.90;;;;;;5101148;28;20310;-73
2024/02/01 01:03:44;;;;;;;4.13;3.83;;;5.60;99.90;;;;;;5087144;28;20662;-73
2024/02/01 01:06:11;;;;;;;4.10;3.70;;;5.50;99.90;;;;;;5096147;28;20308;-73
2024/02/01 01:08:38;;;;;;;5.17;4.13;;;5.50;99.90;;;;;;5107062;28;20322;-72
2024/02/01 01:11:05;;;;;;;4.70;4.30;;;5.50;99.90;;;;;;5102835;28;20230;-73
2024/02/01 01:13:33;;;;;;;4.30;4.00;;;5.60;99.90;;;;;;5086899;28;20286;-74
2024/02/01 01:16:00;;;;;;;4.53;4.23;;;5.60;99.90;;;;;;5087213;28;20294;-74
2024/02/01 01:18:27;;;;;;;4.37;4.07;;;5.60;99.90;;;;;;5086660;28;20211;-73
2024/02/01 01:20:54;;;;;;;4.00;3.60;;;5.60;99.90;;;;;;5089365;28;20285;-73
2024/02/01 01:23:20;;;;;;;4.97;4.07;;;5.60;99.90;;;;;;5106647;28;20324;-72
2024/02/01 01:25:47;;;;;;;4.70;4.30;;;5.60;99.90;;;;;;5091213;28;20266;-72
2024/02/01 01:28:14;;;;;;;4.93;4.43;;;5.60;99.90;;;;;;5086755;28;20202;-72
2024/02/01 01:30:43;;;;;;;4.30;3.90;;;5.60;99.90;;;;;;5101185;28;20208;-72
2024/02/01 01:33:09;;;;;;;5.20;4.30;;;5.60;99.90;;;;;;5106670;28;20685;-72
2024/02/01 01:35:36;;;;;;;4.50;4.10;;;5.60;99.90;;;;;;5106850;28;20309;-72
2024/02/01 01:38:03;;;;;;;4.50;4.10;;;5.60;99.90;;;;;;5106852;28;20205;-72
2024/02/01 01:40:30;;;;;;;4.07;3.67;;;5.60;99.90;;;;;;5106757;28;20206;-72
2024/02/01 01:42:57;;;;;;;5.07;4.00;;;5.70;99.90;;;;;;5105864;28;20675;-72
2024/02/01 01:45:24;;;;;;;4.67;4.20;;;5.70;99.90;;;;;;5106928;28;20286;-72
2024/02/01 01:47:53;;;;;;;4.20;3.90;;;5.60;99.90;;;;;;5106892;28;20213;-73
2024/02/01 01:50:21;;;;;;;4.17;3.77;;;5.70;99.90;;;;;;5106484;28;20321;-73
2024/02/01 01:52:50;;;;;;;4.13;3.83;;;5.70;99.90;;;;;;5088523;28;20199;-72
2024/02/01 01:55:19;;;;;;;4.90;4.50;;;5.70;99.90;;;;;;5098403;28;20245;-72
2024/02/01 01:57:46;;;;;;;3.80;3.60;;;5.70;99.90;;;;;;5107418;28;20967;-72
2024/02/01 02:00:14;;;;;;;5.43;4.30;;;5.70;99.90;;;;;;5102211;28;20257;-72
2024/02/01 02:02:42;;;;;;;4.20;3.90;;;5.70;99.90;;;;;;5106582;28;20263;-72
2024/02/01 02:05:11;;;;;;;4.10;3.80;;;5.70;99.90;;;;;;5110588;28;20204;-73
2024/02/01 02:07:39;;;;;;;4.33;4.03;;;5.70;99.90;;;;;;5110375;27;20636;-73
2024/02/01 02:10:08;;;;;;;4.10;3.70;;;5.70;99.90;;;;;;5110679;28;20288;-73
2024/02/01 02:12:42;;;;;;;4.77;3.93;;;5.70;99.90;;;;;;5093734;28;20262;-73
2024/02/01 02:15:10;;;;;;;4.07;3.77;;;5.70;99.90;;;;;;5090289;28;20210;-72
2024/02/01 02:17:38;;;;;;;4.10;3.80;;;5.70;99.90;;;;;;5090124;28;20210;-73
2024/02/01 02:20:17;;;;;;;4.00;3.67;;;5.70;99.90;;;;;;5092189;28;20298;-73
2024/02/01 02:22:46;;;;;;;4.57;4.07;;;5.70;99.90;;;;;;5109837;28;20786;-73
2024/02/01 02:25:14;;;;;;;4.73;4.33;;;5.70;99.90;;;;;;5098986;28;20230;-73
2024/02/01 02:27:42;;;;;;;4.50;4.10;;;5.60;99.90;;;;;;5090016;28;20226;-72
2024/02/01 02:30:08;;;;;;;4.93;4.40;;;5.50;99.90;;;;;;5090099;28;20205;-72
2024/02/01 02:32:35;;;;;;;4.90;4.43;;;5.50;99.90;;;;;;5108103;28;20551;-73
2024/02/01 02:35:02;;;;;;;7.50;5.30;;;5.40;99.90;;;;;;5110268;27;20202;-73
2024/02/01 02:37:29;;;;;;;5.40;4.90;;;5.30;99.90;;;;;;5109570;28;20329;-74
2024/02/01 02:39:57;;;;;;;5.97;5.10;;;5.20;99.90;;;;;;5110288;28;20225;-73
2024/02/01 02:42:24;;;;;;;5.20;4.70;;;5.20;99.90;;;;;;5109341;28;20689;-74
2024/02/01 02:44:52;;;;;;;6.57;4.77;;;5.20;99.90;;;;;;5109874;28;20563;-73
2024/02/01 02:47:18;;;;;;;5.60;5.10;;;5.20;99.90;;;;;;5109419;28;20253;-74
2024/02/01 02:49:45;;;;;;;5.43;4.80;;;5.10;99.90;;;;;;5110201;28;20289;-73
2024/02/01 02:52:12;;;;;;;6.97;5.13;;;5.10;99.90;;;;;;5108871;28;20292;-73
2024/02/01 02:54:39;;;;;;;5.20;4.50;;;5.10;99.90;;;;;;5103150;28;20293;-73
2024/02/01 02:57:07;;;;;;;5.40;4.90;;;5.10;99.90;;;;;;5089093;28;20213;-73
2024/02/01 02:59:37;;;;;;;11.13;5.10;;;5.10;99.90;;;;;;5091187;28;20203;-73
2024/02/01 03:02:06;;;;;;;5.10;4.60;;;5.10;99.90;;;;;;5108631;28;20251;-73
2024/02/01 03:04:34;;;;;;;5.43;4.60;;;5.10;99.90;;;;;;5090059;28;20241;-73
2024/02/01 03:07:01;;;;;;;6.10;5.10;;;5.10;99.90;;;;;;5089148;28;20199;-73
2024/02/01 03:09:28;;;;;;;5.43;4.70;;;5.10;99.90;;;;;;5088964;28;20326;-73
2024/02/01 03:11:55;;;;;;;5.77;5.27;;;5.10;99.90;;;;;;5100518;28;20240;-72
2024/02/01 03:14:23;;;;;;;5.60;5.13;;;5.10;99.90;;;;;;5109378;28;20296;-72
2024/02/01 03:16:50;;;;;;;7.60;5.47;;;5.10;99.90;;;;;;5109130;28;20305;-75
2024/02/01 03:19:18;;;;;;;5.87;5.30;;;5.10;99.90;;;;;;5108144;27;20309;-74
2024/02/01 03:21:45;;;;;;;5.80;5.20;;;5.00;99.90;;;;;;5109536;27;20208;-73
2024/02/01 03:24:12;;;;;;;6.27;5.77;;;5.00;99.90;;;;;;5118705;27;20230;-73
2024/02/01 03:26:40;;;;;;;6.60;5.10;;;5.00;99.90;;;;;;5092281;28;20206;-73
2024/02/01 03:29:06;;;;;;;5.73;5.30;;;5.10;99.90;;;;;;5107530;28;20213;-73
2024/02/01 03:31:35;;;;;;;6.03;5.53;;;5.00;99.90;;;;;;5099171;28;20608;-73
2024/02/01 03:34:05;;;;;;;5.87;5.30;;;5.00;99.90;;;;;;5094085;28;20668;-73
2024/02/01 03:36:34;;;;;;;5.87;5.30;;;5.00;99.90;;;;;;5085963;28;20260;-73
2024/02/01 03:39:01;;;;;;;7.93;5.93;;;4.90;99.90;;;;;;5085541;28;20736;-73
2024/02/01 03:41:28;;;;;;;6.83;5.67;;;4.90;99.90;;;;;;5093059;28;20198;-73
2024/02/01 03:43:55;;;;;;;7.80;5.30;;;5.00;99.90;;;;;;5093096;28;20783;-73
2024/02/01 03:46:24;;;;;;;6.03;5.53;;;4.90;99.90;;;;;;5087677;28;20326;-73
2024/02/01 03:48:52;;;;;;;5.93;5.43;;;5.00;99.90;;;;;;5096228;28;20247;-74
2024/02/01 03:51:20;;;;;;;6.53;5.80;;;4.90;99.90;;;;;;5093138;28;20194;-74
2024/02/01 03:53:47;;;;;;;6.67;5.67;;;4.90;99.90;;;;;;5101390;28;20195;-74
2024/02/01 03:56:14;;;;;;;6.57;5.97;;;4.90;99.90;;;;;;5096719;28;20294;-74
2024/02/01 03:58:42;;;;;;;6.33;5.73;;;5.00;99.90;;;;;;5106878;28;20241;-74
2024/02/01 04:01:10;;;;;;;6.60;6.00;;;5.00;99.90;;;;;;5088093;28;20215;-74
2024/02/01 04:03:40;;;;;;;6.97;6.13;;;5.00;99.90;;;;;;5087758;28;20231;-74
2024/02/01 04:06:08;;;;;;;7.40;5.87;;;5.00;99.90;;;;;;5088003;28;20643;-74
2024/02/01 04:08:35;;;;;;;6.63;6.03;;;5.00;99.90;;;;;;5087721;28;20238;-73
2024/02/01 04:11:02;;;;;;;6.70;6.00;;;5.00;99.90;;;;;;5087950;28;20238;-74
2024/02/01 04:13:29;;;;;;;7.80;5.80;;;5.00;99.90;;;;;;5087997;28;20290;-73
2024/02/01 04:15:55;;;;;;;6.23;5.73;;;5.00;99.90;;;;;;5088160;28;20211;-73
2024/02/01 04:18:22;;;;;;;6.77;6.17;;;5.00;99.90;;;;;;5100650;28;20289;-74
2024/02/01 04:20:49;;;;;;;7.13;6.53;;;5.00;99.90;;;;;;5107807;28;20205;-73
2024/02/01 04:23:17;;;;;;;6.80;6.20;;;5.00;99.90;;;;;;5107943;28;20316;-73
2024/02/01 04:25:45;;;;;;;6.90;6.23;;;5.10;99.90;;;;;;5092145;28;20280;-74
2024/02/01 04:28:14;;;;;;;8.47;6.70;;;5.10;99.90;;;;;;5087879;28;20206;-74
2024/02/01 04:30:43;;;;;;;6.73;6.13;;;5.10;99.90;;;;;;5087309;28;20681;-73
2024/02/01 04:33:10;;;;;;;6.93;6.23;;;5.10;99.90;;;;;;5087389;28;20268;-73
2024/02/01 04:35:37;;;;;;;7.33;6.40;;;5.10;99.90;;;;;;5087262;28;20827;-73
2024/02/01 04:38:04;;;;;;;9.43;6.77;;;5.10;99.90;;;;;;5087276;28;20297;-73
2024/02/01 04:40:32;;;;;;;6.87;6.27;;;5.10;99.90;;;;;;5087128;28;20313;-74
2024/02/01 04:43:01;;;;;;;7.50;6.77;;;5.10;99.90;;;;;;5087033;28;20207;-74
2024/02/01 04:45:29;;;;;;;10.87;7.07;;;5.10;99.90;;;;;;5087373;28;20218;-74
2024/02/01 04:47:56;;;;;;;7.67;6.83;;;5.10;99.90;;;;;;5087207;28;20298;-73
2024/02/01 04:50:23;;;;;;;7.67;6.97;;;5.10;99.90;;;;;;5087100;28;20618;-73
2024/02/01 04:52:50;;;;;;;8.40;7.37;;;5.10;99.90;;;;;;5087245;28;20282;-73
2024/02/01 04:55:17;;;;;;;8.10;7.20;;;5.10;99.90;;;;;;5098689;28;20202;-73
2024/02/01 04:57:46;;;;;;;8.07;7.30;;;5.10;99.90;;;;;;5107637;28;20739;-74
2024/02/01 05:00:17;;;;;;;10.63;8.53;;;5.20;99.90;;;;;;5107863;28;20293;-74
2024/02/01 05:02:46;;;;;;;8.23;7.43;;;5.20;99.90;;;;;;5107577;28;20190;-74
2024/02/01 05:05:16;;;;;;;8.77;7.90;;;5.20;99.90;;;;;;5107323;28;20237;-74
2024/02/01 05:07:43;;;;;;;11.00;8.40;;;5.20;99.90;;;;;;5106873;28;20672;-73
2024/02/01 05:10:12;;;;;;;8.83;7.93;;;5.30;99.90;;;;;;5107428;28;20201;-73
2024/02/01 05:12:39;;;;;;;9.33;8.33;;;5.30;99.90;;;;;;5106709;28;20241;-73
2024/02/01 05:15:11;;;;;;;10.20;8.27;;;5.30;99.90;;;;;;5090775;28;20581;-73
2024/02/01 05:17:39;;;;;;;10.13;8.77;;;5.30;99.90;;;;;;5086836;28;20240;-73
2024/02/01 05:20:08;;;;;;;9.80;8.77;;;5.30;99.90;;;;;;5087049;28;20210;-74
2024/02/01 05:22:35;;;;;;;10.83;7.90;;;5.30;99.90;;;;;;5086527;28;20229;-73
2024/02/01 05:25:14;;;;;;;8.77;7.87;;;5.40;99.90;;;;;;5086991;28;20326;-73
2024/02/01 05:27:43;;;;;;;10.63;8.87;;;5.40;99.90;;;;;;5087003;28;20205;-73
2024/02/01 05:30:12;;;;;;;9.37;8.57;;;5.40;99.90;;;;;;5086855;28;20238;-73
2024/02/01 05:32:48;;;;;;;10.47;8.67;;;5.40;99.90;;;;;;5087345;28;20286;-73
2024/02/01 05:35:15;;;;;;;9.40;8.20;;;5.50;99.90;;;;;;5094908;28;20205;-73
2024/02/01 05:37:46;;;;;;;8.73;7.93;;;5.50;99.90;;;;;;5110924;28;20297;-73
2024/02/01 05:40:16;;;;;;;9.90;8.40;;;5.50;99.90;;;;;;5111272;28;20655;-73
2024/02/01 05:42:44;;;;;;;13.67;9.43;;;5.50;99.90;;;;;;5111377;28;20273;-73
2024/02/01 05:45:13;;;;;;;9.43;8.47;;;5.50;99.90;;;;;;5111182;28;20325;-74
2024/02/01 05:47:40;;;;;;;10.50;8.23;;;5.50;99.90;;;;;;5111030;28;20217;-73
2024/02/01 05:50:07;;;;;;;10.40;8.77;;;5.50;99.90;;;;;;5111033;28;20735;-74
2024/02/01 05:52:36;;;;;;;10.27;9.17;;;5.60;99.90;;;;;;5097095;28;20849;-74
2024/02/01 05:55:05;;;;;;;10.10;9.10;;;5.60;99.90;;;;;;5100052;28;20626;-74
2024/02/01 05:57:32;;;;;;;10.03;8.60;;;5.60;99.90;;;;;;5087487;28;20218;-73
2024/02/01 06:00:00;;;;;;;9.57;8.67;;;5.60;99.90;;;;;;5090670;28;20297;-73
2024/02/01 06:02:28;;;;;;;10.63;9.53;;;5.70;99.90;;;;;;5090099;28;20219;-73
2024/02/01 06:04:55;;;;;;;10.27;9.10;;;5.70;99.90;;;;;;5090088;28;20322;-74
2024/02/01 06:07:22;;;;;;;10.33;9.27;;;5.70;99.90;;;;;;5089915;28;20818;-74
2024/02/01 06:09:49;;;;;;;10.10;9.00;;;5.70;99.90;;;;;;5093667;28;20209;-73
2024/02/01 06:12:16;;;;;;;12.57;9.87;;;5.70;99.90;;;;;;5110425;28;20328;-73
2024/02/01 06:14:43;;;;;;;9.97;9.03;;;5.70;99.90;;;;;;5110486;28;20256;-74
2024/02/01 06:17:10;;;;;;;14.73;9.70;;;5.70;99.90;;;;;;5110732;28;20661;-74
2024/02/01 06:19:40;;;;;;;14.57;10.87;;;5.70;99.90;;;;;;5110676;28;20687;-74
2024/02/01 06:22:08;;;;;;;11.33;10.23;;;5.70;99.90;;;;;;5110981;28;20622;-73
2024/02/01 06:24:34;;;;;;;11.17;10.07;;;5.70;99.90;;;;;;5104271;28;20260;-73
2024/02/01 06:27:02;;;;;;;11.17;10.07;;;5.70;99.90;;;;;;5090261;28;20305;-73
2024/02/01 06:29:29;;;;;;;11.93;10.73;;;5.70;99.90;;;;;;5090062;28;20207;-73
2024/02/01 06:31:55;;;;;;;13.67;10.70;;;5.70;99.90;;;;;;5089841;28;20298;-73
2024/02/01 06:34:27;;;;;;;13.47;10.60;;;5.80;99.90;;;;;;5089998;28;20199;-74
2024/02/01 06:37:00;;;;;;;12.17;10.33;;;5.80;99.90;;;;;;5089649;28;20206;-74
2024/02/01 06:42:17;;;;;;;11.13;10.03;;;5.90;99.90;;;;;;5087810;28;20837;-74
2024/02/01 06:44:46;;;;;;;12.03;10.77;;;5.90;99.90;;;;;;5089540;28;21127;-74
2024/02/01 06:47:23;;;;;;;13.67;11.07;;;6.00;99.90;;;;;;5091075;28;20202;-74
2024/02/01 06:50:09;;;;;;;12.90;10.90;;;5.90;99.90;;;;;;5110111;27;20631;-74
2024/02/01 06:52:39;;;;;;;11.63;10.10;;;5.90;99.90;;;;;;5110212;28;20198;-74
2024/02/01 06:55:24;;;;;;;12.07;10.77;;;6.00;99.90;;;;;;5100005;28;20210;-74
2024/02/01 06:58:03;;;;;;;11.17;9.97;;;6.00;99.90;;;;;;5089858;28;20191;-74
2024/02/01 07:03:32;;;;;;;11.80;10.57;;;6.00;99.90;;;;;;5089444;28;20231;-74
2024/02/01 07:06:05;;;;;;;11.10;10.10;;;5.90;99.90;;;;;;5089030;28;20213;-74
2024/02/01 07:08:45;;;;;;;11.57;10.10;;;6.00;99.90;;;;;;5089074;28;20306;-74
2024/02/01 07:11:24;;;;;;;13.10;9.87;;;6.00;99.90;;;;;;5089021;28;20335;-74
2024/02/01 07:14:08;;;;;;;11.07;9.83;;;6.00;99.90;;;;;;5089433;28;20324;-74
2024/02/01 07:16:53;;;;;;;9.90;9.00;;;6.00;99.90;;;;;;5095790;28;20187;-74
2024/02/01 07:19:39;;;;;;;10.37;9.17;;;6.00;99.90;;;;;;5109115;27;20194;-74
2024/02/01 07:22:06;;;;;;;10.83;9.07;;;6.10;99.90;;;;;;5109124;28;20764;-74
2024/02/01 07:57:51;;;;;;;7.20;6.50;;;6.40;99.90;;;;;;5087824;28;20199;-73
2024/02/01 08:00:27;;;;;;;7.17;6.47;;;6.40;99.90;;;;;;5088122;28;20240;-73
2024/02/01 08:03:03;;;;;;;7.23;6.40;;;6.40;99.90;;;;;;5096722;28;20886;-74
2024/02/01 08:08:15;;;;;;;7.03;6.33;;;6.50;99.90;;;;;;5108121;28;20758;-73
2024/02/01 08:10:43;;;;;;;6.43;5.60;;;6.50;99.90;;;;;;5108259;28;20623;-74
2024/02/01 08:13:12;;;;;;;6.03;5.40;;;6.50;99.90;;;;;;5108467;28;20202;-74
2024/02/01 08:15:42;;;;;;;5.87;5.37;;;6.60;99.90;;;;;;5108227;28;20239;-74
2024/02/01 08:18:09;;;;;;;5.50;5.03;;;6.60;99.90;;;;;;5107994;28;20652;-74
2024/02/01 08:20:36;;;;;;;5.13;4.73;;;6.60;99.90;;;;;;5108198;28;20293;-74
2024/02/01 08:23:04;;;;;;;7.47;5.70;;;6.60;99.90;;;;;;5107788;28;20253;-74
2024/02/01 08:25:30;;;;;;;6.20;5.10;;;6.60;99.90;;;;;;5090801;28;20234;-74
2024/02/01 08:28:00;;;;;;;5.60;5.07;;;6.60;99.90;;;;;;5087794;28;20301;-74
2024/02/01 08:30:31;;;;;;;7.60;5.00;;;6.70;99.90;;;;;;5087910;28;20199;-74
2024/02/01 08:33:03;;;;;;;5.27;4.60;;;6.80;99.90;;;;;;5087507;28;20721;-74
2024/02/01 08:35:33;;;;;;;4.70;4.00;;;6.80;99.90;;;;;;5087478;28;20194;-74
2024/02/01 08:38:01;;;;;;;8.10;4.37;;;6.80;99.90;;;;;;5087658;28;20237;-74
2024/02/01 08:40:28;;;;;;;5.37;3.80;;;6.80;99.90;;;;;;5094980;28;20306;-74
2024/02/01 08:42:57;;;;;;;5.57;3.67;;;6.80;99.90;;;;;;5108091;28;20233;-74
2024/02/01 08:45:27;;;;;;;4.87;3.73;;;6.80;99.90;;;;;;5107596;28;20825;-74
2024/02/01 08:48:00;;;;;;;6.93;4.77;;;6.90;99.90;;;;;;5108153;28;20206;-74
2024/02/01 08:50:28;;;;;;;5.63;4.00;;;6.90;99.90;;;;;;5107853;28;20198;-74
2024/02/01 08:52:55;;;;;;;5.13;3.77;;;7.00;99.90;;;;;;5107703;28;20198;-74
2024/02/01 08:55:22;;;;;;;4.60;4.00;;;7.00;99.90;;;;;;5095751;28;20242;-74
2024/02/01 08:57:49;;;;;;;8.23;3.80;;;7.00;99.90;;;;;;5087763;28;20203;-74
2024/02/01 09:00:25;;;;;;;6.57;3.90;;;7.00;99.90;;;;;;5105231;28;20762;-74
2024/02/01 09:03:04;;;;;;;3.93;3.40;;;7.00;99.90;;;;;;5107865;28;20250;-74
2024/02/01 09:05:37;;;;;;;5.10;3.40;;;7.10;99.90;;;;;;5107767;28;20222;-74
2024/02/01 09:08:06;;;;;;;3.03;2.67;;;7.20;99.90;;;;;;5107265;28;20239;-74
2024/02/01 09:10:33;;;;;;;4.63;3.00;;;7.20;99.90;;;;;;5107081;28;20210;-74
2024/02/01 09:13:01;;;;;;;5.67;3.23;;;7.30;99.90;;;;;;5107898;28;20228;-74
2024/02/01 09:15:30;;;;;;;3.73;2.53;;;7.40;99.90;;;;;;5107666;28;20214;-74
2024/02/01 09:17:58;;;;;;;5.00;2.87;;;7.60;99.90;;;;;;5107772;28;20206;-74
2024/02/01 09:20:25;;;;;;;7.47;4.03;;;7.60;99.90;;;;;;5101991;28;20206;-74
2024/02/01 09:22:56;;;;;;;5.77;4.03;;;7.70;99.90;;;;;;5087051;28;20206;-74
2024/02/01 09:25:25;;;;;;;6.53;2.77;;;7.70;99.90;;;;;;5087015;28;20284;-74
2024/02/01 09:27:53;;;;;;;5.30;2.30;;;7.90;99.90;;;;;;5087345;28;20653;-74
2024/02/01 09:30:22;;;;;;;6.53;2.60;;;7.90;99.90;;;;;;5086994;28;20761;-74
2024/02/01 09:32:51;;;;;;;6.43;2.50;;;7.90;99.90;;;;;;5086688;28;20566;-74
2024/02/01 09:35:18;;;;;;;4.23;1.93;;;7.90;99.90;;;;;;5086927;28;20214;-74
2024/02/01 09:37:45;;;;;;;7.33;2.33;;;8.00;99.90;;;;;;5088024;28;20266;-74
2024/02/01 09:40:14;;;;;;;4.93;2.53;;;8.00;99.90;;;;;;5086913;28;20637;-74
2024/02/01 09:42:42;;;;;;;4.20;2.30;;;8.10;99.90;;;;;;5086841;28;20291;-74
2024/02/01 09:45:10;;;;;;;5.37;2.10;;;8.20;99.90;;;;;;5086780;28;20259;-74
2024/02/01 09:47:43;;;;;;;6.70;2.17;;;8.30;99.90;;;;;;5086364;28;20294;-75
2024/02/01 09:50:14;;;;;;;5.43;2.03;;;8.40;99.90;;;;;;5086709;28;20187;-74
2024/02/01 09:52:44;;;;;;;7.63;2.23;;;8.30;99.90;;;;;;5086323;28;20222;-74
2024/02/01 09:55:17;;;;;;;6.20;1.90;;;8.30;99.90;;;;;;5093408;28;20202;-74
2024/02/01 09:57:46;;;;;;;4.90;2.10;;;8.30;99.90;;;;;;5106684;28;20685;-74
2024/02/01 10:00:18;;;;;;;5.17;1.67;;;8.40;99.90;;;;;;5106836;28;20238;-74
2024/02/01 10:02:46;;;;;;;7.80;2.00;;;8.40;99.90;;;;;;5107335;28;20240;-74
2024/02/01 10:05:13;;;;;;;4.97;1.77;;;8.50;99.90;;;;;;5106788;28;20328;-74
2024/02/01 10:07:41;;;;;;;5.53;1.67;;;8.50;99.90;;;;;;5106328;28;20646;-74
2024/02/01 10:10:11;;;;;;;5.37;1.70;;;8.50;99.90;;;;;;5106548;28;20297;-74
2024/02/01 10:12:42;;;;;;;6.63;2.40;;;8.70;99.90;;;;;;5106416;28;20299;-74
2024/02/01 10:15:11;;;;;;;5.83;1.97;;;8.80;99.90;;;;;;5106814;28;20285;-74
2024/02/01 10:17:45;;;;;;;3.07;1.67;;;8.90;99.90;;;;;;5105055;28;20214;-74
2024/02/01 10:20:35;;;;;;;6.07;1.87;;;8.90;99.90;;;;;;5109298;28;20194;-74
2024/02/01 10:23:03;;;;;;;5.50;1.87;;;9.00;99.90;;;;;;5110104;28;20259;-74
2024/02/01 10:25:34;;;;;;;4.50;1.90;;;9.10;99.90;;;;;;5096747;28;20579;-74
2024/02/01 10:28:06;;;;;;;3.33;1.90;;;9.20;99.90;;;;;;5089966;28;20197;-74
2024/02/01 10:30:33;;;;;;;8.40;2.00;;;9.10;99.90;;;;;;5089880;28;20295;-74
2024/02/01 10:33:04;;;;;;;4.97;1.93;;;9.20;99.90;;;;;;5091468;28;20206;-74
2024/02/01 10:35:32;;;;;;;9.00;1.97;;;9.30;99.90;;;;;;5089795;28;20199;-74
2024/02/01 10:38:11;;;;;;;5.33;2.00;;;9.30;99.90;;;;;;5089615;28;20221;-74
2024/02/01 10:40:44;;;;;;;4.70;1.80;;;9.30;99.90;;;;;;5089865;28;20194;-74
2024/02/01 10:43:18;;;;;;;7.37;2.33;;;9.30;99.90;;;;;;5089796;28;20600;-74
2024/02/01 10:45:50;;;;;;;8.43;2.63;;;9.30;99.90;;;;;;5089674;28;20222;-74
2024/02/01 10:48:20;;;;;;;6.17;2.00;;;9.30;99.90;;;;;;5089860;28;20222;-74
2024/02/01 10:50:47;;;;;;;6.90;2.10;;;9.30;99.90;;;;;;5089990;28;20199;-74
2024/02/01 10:53:16;;;;;;;5.33;1.83;;;9.20;99.90;;;;;;5089702;28;20226;-74
2024/02/01 10:55:48;;;;;;;5.53;1.90;;;9.10;99.90;;;;;;5089799;28;20292;-74
2024/02/01 10:58:20;;;;;;;8.17;2.77;;;9.00;99.90;;;;;;5089228;28;20285;-74
2024/02/01 11:00:47;;;;;;;9.73;2.00;;;9.00;99.90;;;;;;5089405;28;20289;-74
2024/02/01 11:03:16;;;;;;;6.97;2.30;;;8.80;99.90;;;;;;5089413;28;20286;-74
2024/02/01 11:05:44;;;;;;;6.27;2.07;;;8.80;99.90;;;;;;5088752;28;20326;-74
2024/02/01 11:08:16;;;;;;;6.63;2.03;;;9.00;99.90;;;;;;5089086;28;20256;-74
2024/02/01 11:10:52;;;;;;;10.70;2.57;;;8.90;99.90;;;;;;5089185;28;20206;-74
2024/02/01 11:13:29;;;;;;;8.07;3.07;;;8.90;99.90;;;;;;5089043;28;20290;-74
2024/02/01 11:15:58;;;;;;;6.77;2.30;;;8.90;99.90;;;;;;5089337;28;20273;-74
2024/02/01 11:18:25;;;;;;;6.10;2.30;;;8.90;99.90;;;;;;5088837;28;20239;-74
2024/02/01 11:20:57;;;;;;;6.23;2.20;;;8.90;99.90;;;;;;5098463;28;20293;-74
2024/02/01 11:23:24;;;;;;;5.17;2.10;;;9.00;99.90;;;;;;5109168;28;20249;-75
2024/02/01 11:25:56;;;;;;;5.40;2.07;;;9.20;99.90;;;;;;5109526;28;20233;-74
2024/02/01 11:28:28;;;;;;;6.67;2.20;;;9.10;99.90;;;;;;5109069;28;20225;-74
2024/02/01 11:30:55;;;;;;;5.97;2.43;;;8.90;99.90;;;;;;5109326;28;20612;-74
2024/02/01 11:33:27;;;;;;;4.70;1.80;;;8.80;99.90;;;;;;5109061;28;20614;-74
2024/02/01 11:35:57;;;;;;;5.03;1.93;;;8.80;99.90;;;;;;5109189;28;20218;-74
2024/02/01 11:38:25;;;;;;;6.77;2.07;;;8.70;99.90;;;;;;5109400;28;20247;-74
2024/02/01 11:40:52;;;;;;;4.77;1.90;;;8.60;99.90;;;;;;5108961;28;20293;-74
2024/02/01 11:43:19;;;;;;;5.20;1.80;;;8.70;99.90;;;;;;5109071;28;20297;-74
2024/02/01 11:45:53;;;;;;;5.27;1.97;;;8.90;99.90;;;;;;5109041;27;20222;-74
2024/02/01 11:48:22;;;;;;;7.53;1.97;;;9.00;99.90;;;;;;5096668;28;20694;-74
2024/02/01 11:50:53;;;;;;;7.27;2.17;;;9.10;99.90;;;;;;5088508;28;20246;-74
2024/02/01 11:53:21;;;;;;;9.17;2.30;;;9.00;99.90;;;;;;5088060;28;20197;-74
2024/02/01 11:55:54;;;;;;;8.97;2.40;;;9.20;99.90;;;;;;5088366;28;20666;-74
2024/02/01 11:58:22;;;;;;;7.43;2.20;;;9.40;99.90;;;;;;5088651;28;20196;-74
2024/02/01 12:00:55;;;;;;;4.33;1.90;;;9.70;99.90;;;;;;5088446;28;20290;-74
2024/02/01 12:03:22;;;;;;;7.17;2.70;;;9.90;99.90;;;;;;5088264;28;20573;-74
2024/02/01 12:05:51;;;;;;;8.57;2.63;;;10.20;99.90;;;;;;5088101;28;20257;-74
2024/02/01 12:08:19;;;;;;;7.07;2.77;;;10.20;99.90;;;;;;5088040;28;20203;-74
2024/02/01 12:10:46;;;;;;;7.13;2.50;;;9.80;99.90;;;;;;5106645;28;20734;-74
2024/02/01 12:13:15;;;;;;;7.80;2.13;;;9.70;99.90;;;;;;5108975;28;20195;-74
2024/02/01 12:15:43;;;;;;;8.80;2.93;;;9.40;99.90;;;;;;5108186;28;20301;-74
2024/02/01 12:18:12;;;;;;;7.00;2.90;;;9.30;99.90;;;;;;5108162;28;20297;-74
2024/02/01 12:20:42;;;;;;;7.53;2.63;;;9.40;99.90;;;;;;5107875;28;20217;-74
2024/02/01 12:23:11;;;;;;;8.40;2.60;;;9.50;99.90;;;;;;5108266;28;20210;-74
2024/02/01 12:25:39;;;;;;;6.57;2.77;;;9.80;99.90;;;;;;5102094;28;20317;-74
2024/02/01 12:28:09;;;;;;;5.97;2.27;;;9.80;99.90;;;;;;5108230;28;20208;-74
2024/02/01 12:30:37;;;;;;;5.20;2.57;;;10.00;99.90;;;;;;5108163;28;20197;-74
2024/02/01 12:33:12;;;;;;;8.83;2.70;;;9.90;99.90;;;;;;5107950;28;20249;-74
2024/02/01 12:35:41;;;;;;;5.70;2.43;;;10.00;99.90;;;;;;5107833;28;20209;-75
2024/02/01 12:38:09;;;;;;;10.90;2.90;;;10.10;99.90;;;;;;5108305;28;20198;-74
2024/02/01 12:40:36;;;;;;;8.57;2.93;;;10.00;99.90;;;;;;5107655;28;20237;-74
2024/02/01 12:43:04;;;;;;;8.53;2.47;;;9.90;99.90;;;;;;5107579;28;20229;-74
2024/02/01 12:45:32;;;;;;;9.20;2.70;;;9.90;99.90;;;;;;5107452;28;20232;-74
2024/02/01 12:47:58;;;;;;;7.77;2.87;;;10.10;99.90;;;;;;5107703;28;20320;-74
2024/02/01 12:50:26;;;;;;;10.47;2.93;;;9.80;99.90;;;;;;5107265;28;20715;-74
2024/02/01 12:52:54;;;;;;;4.57;2.20;;;9.80;99.90;;;;;;5107276;28;20998;-74
2024/02/01 12:55:21;;;;;;;8.27;2.47;;;9.80;99.90;;;;;;5095357;28;20305;-74
2024/02/01 12:57:48;;;;;;;9.30;2.30;;;9.70;99.90;;;;;;5087188;28;20207;-74
2024/02/01 13:00:16;;;;;;;7.40;2.10;;;9.70;99.90;;;;;;5087206;28;20206;-74
2024/02/01 13:02:44;;;;;;;9.27;3.30;;;9.60;99.90;;;;;;5087419;28;20215;-74
2024/02/01 13:05:11;;;;;;;10.33;2.70;;;9.70;99.90;;;;;;5089956;28;20209;-75
2024/02/01 13:07:39;;;;;;;10.83;2.77;;;9.90;99.90;;;;;;5107162;28;20233;-75
2024/02/01 13:10:09;;;;;;;9.50;2.30;;;10.00;99.90;;;;;;5107581;28;20206;-74
2024/02/01 13:12:37;;;;;;;8.80;2.40;;;10.00;99.90;;;;;;5106922;28;20230;-74
2024/02/01 13:15:05;;;;;;;7.80;2.47;;;10.00;99.90;;;;;;5107285;28;20682;-75
2024/02/01 13:17:35;;;;;;;9.97;2.60;;;10.00;99.90;;;;;;5107210;28;20214;-74
2024/02/01 13:20:18;;;;;;;8.17;2.37;;;9.90;99.90;;;;;;5107476;28;20208;-74
2024/02/01 13:22:46;;;;;;;6.93;2.13;;;9.70;99.90;;;;;;5106749;28;20292;-74
2024/02/01 13:25:18;;;;;;;11.10;2.47;;;9.60;99.90;;;;;;5107075;28;20218;-74
2024/02/01 13:27:47;;;;;;;7.50;2.40;;;9.30;99.90;;;;;;5107231;28;20214;-74
2024/02/01 13:30:15;;;;;;;10.33;2.23;;;9.20;99.90;;;;;;5107069;28;20217;-74
2024/02/01 13:32:42;;;;;;;6.73;2.33;;;9.00;99.90;;;;;;5107108;28;20302;-74
2024/02/01 13:35:09;;;;;;;9.70;2.50;;;8.90;99.90;;;;;;5107280;28;20209;-74
2024/02/01 13:37:36;;;;;;;8.57;2.10;;;8.90;99.90;;;;;;5102381;28;20229;-74
2024/02/01 13:40:05;;;;;;;5.13;2.10;;;8.90;99.90;;;;;;5098768;28;20322;-74
2024/02/01 13:42:34;;;;;;;4.30;2.20;;;9.00;99.90;;;;;;5098237;28;20202;-75
2024/02/01 13:45:02;;;;;;;6.90;2.30;;;8.80;99.90;;;;;;5089723;28;20650;-75
2024/02/01 13:47:29;;;;;;;9.93;2.47;;;8.80;99.90;;;;;;5087179;28;20313;-75